Time;durP1;ratioP1;P1;durP2;ratioP2;P2;SDS_P1;SDS_P2;PMS_P1;PMS_P2;Temp;Humidity;BMP_temperature;BMP_pressure;BME280_temperature;BME280_humidity;BME280_pressure;Samples;Min_cycle;Max_cycle;Signal;HPM_P1;HPM_P2
2024/02/27 00:00:42;;;;;;;3.05;1.20;;;11.20;96.70;;;;;;4992631;28;20042;-71
2024/02/27 00:03:12;;;;;;;1.90;0.98;;;11.20;96.70;;;;;;5000817;28;20049;-70
2024/02/27 00:05:45;;;;;;;1.58;1.05;;;11.20;96.70;;;;;;4985903;28;20057;-70
2024/02/27 00:08:15;;;;;;;1.70;0.85;;;11.30;96.70;;;;;;5007625;28;20053;-70
2024/02/27 00:10:44;;;;;;;2.13;1.02;;;11.30;96.70;;;;;;4991916;28;20064;-71
2024/02/27 00:13:13;;;;;;;1.80;1.10;;;11.30;96.70;;;;;;4991871;28;20053;-70
2024/02/27 00:15:42;;;;;;;2.92;1.13;;;11.30;96.70;;;;;;5006050;28;20073;-70
2024/02/27 00:18:16;;;;;;;2.20;0.98;;;11.40;96.70;;;;;;4994282;28;20080;-71
2024/02/27 00:20:46;;;;;;;2.20;1.13;;;11.40;96.70;;;;;;5006680;28;20046;-70
2024/02/27 00:23:16;;;;;;;1.33;1.08;;;11.40;96.70;;;;;;5005606;28;20056;-69
2024/02/27 00:25:47;;;;;;;1.85;1.08;;;11.40;96.70;;;;;;5009472;28;20095;-71
2024/02/27 00:28:20;;;;;;;2.80;0.93;;;11.40;96.70;;;;;;5002450;28;20061;-71
2024/02/27 00:30:51;;;;;;;1.40;0.68;;;11.40;96.70;;;;;;4995380;28;20059;-71
2024/02/27 00:33:20;;;;;;;0.90;0.70;;;11.50;96.70;;;;;;5011131;28;20134;-70
2024/02/27 00:35:53;;;;;;;1.15;0.60;;;11.50;96.70;;;;;;4997625;28;20514;-70
2024/02/27 00:38:23;;;;;;;1.55;0.55;;;11.50;96.70;;;;;;5000132;28;20057;-70
2024/02/27 00:40:53;;;;;;;0.35;0.30;;;11.60;96.70;;;;;;4998036;28;20067;-70
2024/02/27 00:43:24;;;;;;;1.42;0.40;;;11.60;96.70;;;;;;5007897;28;20043;-70
2024/02/27 00:45:52;;;;;;;0.70;0.25;;;11.70;96.70;;;;;;5001629;28;20096;-71
2024/02/27 00:48:21;;;;;;;0.82;0.40;;;11.70;96.70;;;;;;5009731;28;20045;-71
2024/02/27 00:50:54;;;;;;;0.20;0.10;;;11.80;96.70;;;;;;4994266;28;20045;-70
2024/02/27 00:53:23;;;;;;;1.90;0.32;;;11.80;96.70;;;;;;4988874;28;20050;-70
2024/02/27 00:55:54;;;;;;;2.20;0.35;;;11.80;96.70;;;;;;5006141;28;20049;-71
2024/02/27 00:58:24;;;;;;;0.90;0.20;;;11.90;96.70;;;;;;4994710;28;20061;-70
2024/02/27 01:00:53;;;;;;;0.80;0.30;;;11.90;96.70;;;;;;5005091;28;20609;-71
2024/02/27 01:03:22;;;;;;;1.40;0.30;;;11.90;96.70;;;;;;4997347;28;20091;-69
2024/02/27 01:05:54;;;;;;;0.38;0.20;;;12.00;96.70;;;;;;5008727;28;20050;-70
2024/02/27 01:08:24;;;;;;;2.75;0.40;;;12.00;96.70;;;;;;5007822;28;20937;-70
2024/02/27 01:10:54;;;;;;;1.13;0.30;;;12.00;96.70;;;;;;5003219;28;20040;-70
2024/02/27 01:13:24;;;;;;;1.10;0.30;;;12.00;96.70;;;;;;4990023;28;20142;-71
2024/02/27 01:15:53;;;;;;;0.70;0.28;;;12.10;96.70;;;;;;4994290;28;20056;-70
2024/02/27 01:18:21;;;;;;;1.98;0.10;;;12.10;96.70;;;;;;4994069;28;20053;-71
2024/02/27 01:20:50;;;;;;;0.30;0.20;;;12.10;96.70;;;;;;5005855;28;20062;-71
2024/02/27 01:23:22;;;;;;;1.70;0.20;;;12.10;96.70;;;;;;4982390;28;20053;-71
2024/02/27 01:25:52;;;;;;;1.02;0.30;;;12.10;96.70;;;;;;5005718;28;20569;-71
2024/02/27 01:28:23;;;;;;;1.13;0.20;;;12.20;96.70;;;;;;4987587;28;20510;-70
2024/02/27 01:30:52;;;;;;;0.45;0.10;;;12.20;96.70;;;;;;5000052;28;20045;-71
2024/02/27 01:33:21;;;;;;;0.68;0.20;;;12.20;96.70;;;;;;5008264;28;20553;-70
2024/02/27 01:35:51;;;;;;;0.65;0.17;;;12.20;96.70;;;;;;4996384;28;20073;-70
2024/02/27 01:38:21;;;;;;;0.63;0.28;;;12.30;96.70;;;;;;5007397;28;20918;-70
2024/02/27 01:40:49;;;;;;;0.90;0.30;;;12.30;96.70;;;;;;5007073;28;20092;-69
2024/02/27 01:43:23;;;;;;;0.85;0.28;;;12.30;96.70;;;;;;5007237;28;20045;-70
2024/02/27 01:46:04;;;;;;;0.57;0.20;;;12.30;96.70;;;;;;5001338;28;20049;-70
2024/02/27 01:48:33;;;;;;;0.80;0.20;;;12.30;96.70;;;;;;5003542;28;20453;-69
2024/02/27 01:51:03;;;;;;;1.85;0.35;;;12.40;96.70;;;;;;4991182;28;20107;-70
2024/02/27 01:53:37;;;;;;;2.42;0.20;;;12.40;96.70;;;;;;4990506;28;20457;-70
2024/02/27 01:56:08;;;;;;;3.45;0.40;;;12.30;96.70;;;;;;4993910;28;20056;-70
2024/02/27 01:58:39;;;;;;;1.08;0.30;;;12.40;96.70;;;;;;4978209;28;20104;-69
2024/02/27 02:01:10;;;;;;;1.55;0.30;;;12.40;96.70;;;;;;5007360;28;20049;-70
2024/02/27 02:03:39;;;;;;;2.33;0.50;;;12.40;96.70;;;;;;5007977;28;20532;-70
2024/02/27 02:06:09;;;;;;;1.60;0.50;;;12.40;96.70;;;;;;5009282;28;20060;-70
2024/02/27 02:08:40;;;;;;;0.77;0.20;;;12.40;96.70;;;;;;4993220;28;20426;-70
2024/02/27 02:11:11;;;;;;;2.78;0.73;;;12.40;96.70;;;;;;4991365;28;20053;-70
2024/02/27 02:13:40;;;;;;;1.60;0.30;;;12.40;96.70;;;;;;5007877;28;20073;-69
2024/02/27 02:16:10;;;;;;;2.08;0.43;;;12.40;96.70;;;;;;5005350;28;20052;-70
2024/02/27 02:18:40;;;;;;;3.42;0.50;;;12.40;96.70;;;;;;5003572;28;20049;-69
2024/02/27 02:21:12;;;;;;;1.40;0.30;;;12.40;96.70;;;;;;5001227;28;20126;-70
2024/02/27 02:23:43;;;;;;;2.22;0.50;;;12.40;96.70;;;;;;4995672;28;20054;-70
2024/02/27 02:26:12;;;;;;;2.55;0.68;;;12.40;96.70;;;;;;4984762;28;20053;-70
2024/02/27 02:28:41;;;;;;;2.22;0.40;;;12.40;96.70;;;;;;5007855;28;20045;-70
2024/02/27 02:31:10;;;;;;;3.03;0.57;;;12.40;96.70;;;;;;5024858;28;20053;-70
2024/02/27 02:33:41;;;;;;;0.88;0.40;;;12.40;96.70;;;;;;4988052;28;20046;-70
2024/02/27 02:36:14;;;;;;;2.85;0.50;;;12.50;96.70;;;;;;4997177;28;20087;-69
2024/02/27 02:38:42;;;;;;;2.25;0.50;;;12.50;96.70;;;;;;5011400;28;20600;-69
2024/02/27 02:41:11;;;;;;;3.28;0.60;;;12.50;96.70;;;;;;5008063;28;20406;-69
2024/02/27 02:43:44;;;;;;;1.05;0.38;;;12.50;96.70;;;;;;5002126;28;20522;-70
2024/02/27 02:46:15;;;;;;;1.95;0.52;;;12.50;96.70;;;;;;4995940;28;20108;-70
2024/02/27 02:48:45;;;;;;;2.08;0.60;;;12.50;96.70;;;;;;4982665;28;20046;-69
2024/02/27 02:51:16;;;;;;;0.98;0.20;;;12.50;96.70;;;;;;4985740;28;20045;-69
2024/02/27 02:53:47;;;;;;;2.03;0.43;;;12.50;96.70;;;;;;5015151;28;20050;-70
2024/02/27 02:56:16;;;;;;;2.75;0.65;;;12.50;96.70;;;;;;5002625;28;20069;-69
2024/02/27 02:58:46;;;;;;;2.22;0.60;;;12.50;96.70;;;;;;4984214;28;20053;-70
2024/02/27 03:01:16;;;;;;;1.08;0.45;;;12.50;96.70;;;;;;5006760;28;20038;-69
2024/02/27 03:03:45;;;;;;;1.88;0.60;;;12.60;96.70;;;;;;4986118;28;20073;-70
2024/02/27 03:06:17;;;;;;;2.10;0.40;;;12.60;96.70;;;;;;4999789;28;20060;-70
2024/02/27 03:08:47;;;;;;;2.67;0.70;;;12.60;96.70;;;;;;4985873;28;20064;-70
2024/02/27 03:11:18;;;;;;;1.20;0.50;;;12.60;96.70;;;;;;5006395;28;20052;-69
2024/02/27 03:13:47;;;;;;;2.38;0.57;;;12.60;96.70;;;;;;5002116;28;20080;-70
2024/02/27 03:16:15;;;;;;;1.83;0.50;;;12.60;96.70;;;;;;4990260;28;20064;-70
2024/02/27 03:18:46;;;;;;;1.65;0.50;;;12.60;96.70;;;;;;4992300;28;20579;-70
2024/02/27 03:21:20;;;;;;;2.13;0.50;;;12.60;96.70;;;;;;4985312;28;20522;-69
2024/02/27 03:23:49;;;;;;;1.67;0.50;;;12.70;96.70;;;;;;5002016;28;20449;-70
2024/02/27 03:26:17;;;;;;;1.58;0.60;;;12.70;96.70;;;;;;5019533;28;20131;-70
2024/02/27 03:28:46;;;;;;;2.80;0.40;;;12.70;96.70;;;;;;5004382;28;20071;-70
2024/02/27 03:31:16;;;;;;;0.75;0.30;;;12.70;96.70;;;;;;4986155;28;20115;-70
2024/02/27 03:33:46;;;;;;;1.17;0.30;;;12.70;96.70;;;;;;5003508;28;20061;-70
2024/02/27 03:36:16;;;;;;;2.28;0.35;;;12.70;96.70;;;;;;4992154;28;21048;-70
2024/02/27 03:38:47;;;;;;;2.92;0.50;;;12.70;96.70;;;;;;4994826;28;20840;-70
2024/02/27 03:41:20;;;;;;;1.00;0.40;;;12.70;96.70;;;;;;4990326;28;20057;-70
2024/02/27 03:43:50;;;;;;;3.03;0.50;;;12.70;96.70;;;;;;5003798;28;20050;-70
2024/02/27 03:46:21;;;;;;;1.42;0.40;;;12.70;96.70;;;;;;5000079;28;20053;-69
2024/02/27 03:48:51;;;;;;;1.52;0.25;;;12.70;96.70;;;;;;4983329;28;20132;-70
2024/02/27 03:51:20;;;;;;;0.98;0.35;;;12.70;96.70;;;;;;5008676;28;20042;-70
2024/02/27 03:53:53;;;;;;;2.80;0.40;;;12.70;96.70;;;;;;4991441;28;20062;-70
2024/02/27 03:56:24;;;;;;;2.30;0.50;;;12.70;96.70;;;;;;5008135;28;20076;-70
2024/02/27 03:58:53;;;;;;;2.38;0.73;;;12.70;96.70;;;;;;5004279;28;20049;-70
2024/02/27 04:01:21;;;;;;;1.92;0.40;;;12.70;96.70;;;;;;4976001;28;20039;-70
2024/02/27 04:03:51;;;;;;;0.82;0.40;;;12.70;96.70;;;;;;4992444;28;20045;-70
2024/02/27 04:06:20;;;;;;;2.53;0.50;;;12.70;96.70;;;;;;4992671;28;20144;-70
2024/02/27 04:08:53;;;;;;;2.50;0.40;;;12.70;96.70;;;;;;5008278;28;20054;-70
2024/02/27 04:11:24;;;;;;;1.38;0.47;;;12.70;96.70;;;;;;4997264;28;20061;-70
2024/02/27 04:13:53;;;;;;;1.55;0.25;;;12.70;96.70;;;;;;4994861;28;20049;-70
2024/02/27 04:16:23;;;;;;;0.75;0.30;;;12.70;96.70;;;;;;5002413;28;20058;-70
2024/02/27 04:18:52;;;;;;;1.60;0.25;;;12.80;96.70;;;;;;4996558;28;20077;-70
2024/02/27 04:21:22;;;;;;;3.05;0.57;;;12.80;96.70;;;;;;4977033;28;20046;-70
2024/02/27 04:23:54;;;;;;;1.27;0.70;;;12.70;96.70;;;;;;4991796;28;20050;-70
2024/02/27 04:26:24;;;;;;;1.75;0.85;;;12.70;96.70;;;;;;4989911;28;20062;-70
2024/02/27 04:28:54;;;;;;;0.73;0.30;;;12.70;96.70;;;;;;5003636;28;20045;-70
2024/02/27 04:31:25;;;;;;;2.17;0.38;;;12.70;96.70;;;;;;4986515;28;20135;-70
2024/02/27 04:33:58;;;;;;;1.85;0.40;;;12.70;96.70;;;;;;5008318;28;20050;-70
2024/02/27 04:36:27;;;;;;;0.65;0.22;;;12.60;96.70;;;;;;4998066;28;20056;-70
2024/02/27 04:38:58;;;;;;;1.50;0.30;;;12.60;96.70;;;;;;4998226;28;20058;-70
2024/02/27 04:41:28;;;;;;;0.95;0.30;;;12.70;96.70;;;;;;4983968;28;20131;-70
2024/02/27 04:43:59;;;;;;;1.50;0.32;;;12.70;96.70;;;;;;5006977;28;20458;-70
2024/02/27 04:46:28;;;;;;;1.63;0.40;;;12.70;96.70;;;;;;4972576;28;20081;-70
2024/02/27 04:48:56;;;;;;;2.10;0.40;;;12.70;96.70;;;;;;5006753;28;20052;-70
2024/02/27 04:51:25;;;;;;;0.68;0.20;;;12.70;96.70;;;;;;5007887;28;20103;-70
2024/02/27 04:53:55;;;;;;;2.47;0.40;;;12.70;96.70;;;;;;5007423;28;20192;-70
2024/02/27 04:56:26;;;;;;;1.00;0.30;;;12.70;96.70;;;;;;5006993;28;20133;-70
2024/02/27 04:58:55;;;;;;;1.92;0.30;;;12.80;96.70;;;;;;4995439;28;20046;-70
2024/02/27 05:01:25;;;;;;;2.15;0.50;;;12.80;96.70;;;;;;4987097;28;20466;-70
2024/02/27 05:03:54;;;;;;;1.98;0.40;;;12.80;96.70;;;;;;5000502;28;20057;-70
2024/02/27 05:06:23;;;;;;;2.13;0.50;;;12.80;96.70;;;;;;4998671;28;20517;-70
2024/02/27 05:08:52;;;;;;;1.67;0.38;;;12.80;96.70;;;;;;4992496;28;20133;-70
2024/02/27 05:11:21;;;;;;;2.70;0.30;;;12.80;96.70;;;;;;4993131;28;20121;-70
2024/02/27 05:13:54;;;;;;;2.72;0.50;;;12.80;96.70;;;;;;5006320;28;20054;-69
2024/02/27 05:16:25;;;;;;;2.42;0.45;;;12.80;96.70;;;;;;5002191;28;20058;-69
2024/02/27 05:18:57;;;;;;;2.00;0.50;;;12.80;96.70;;;;;;4986449;28;20510;-70
2024/02/27 05:21:28;;;;;;;2.70;0.40;;;12.80;96.70;;;;;;4984752;28;20693;-69
2024/02/27 05:23:58;;;;;;;3.05;0.60;;;12.80;96.70;;;;;;4980412;28;20104;-70
2024/02/27 05:26:28;;;;;;;1.17;0.60;;;12.80;96.70;;;;;;5004045;28;20072;-70
2024/02/27 05:29:01;;;;;;;3.10;0.95;;;12.80;96.70;;;;;;5007087;28;20493;-69
2024/02/27 05:31:32;;;;;;;3.40;0.80;;;12.80;96.70;;;;;;5004890;28;20034;-70
2024/02/27 05:34:03;;;;;;;4.15;0.50;;;12.80;96.70;;;;;;4990433;28;20081;-70
2024/02/27 05:36:33;;;;;;;3.75;0.80;;;12.80;96.70;;;;;;4999718;28;20046;-69
2024/02/27 05:39:05;;;;;;;2.90;0.80;;;12.80;96.70;;;;;;4985770;28;20080;-70
2024/02/27 05:41:34;;;;;;;3.60;0.77;;;12.70;96.70;;;;;;4993114;28;20050;-69
2024/02/27 05:44:08;;;;;;;1.88;0.40;;;12.70;96.70;;;;;;4986052;28;20087;-69
2024/02/27 05:46:38;;;;;;;2.85;0.60;;;12.70;96.70;;;;;;4980806;28;20156;-69
2024/02/27 05:49:08;;;;;;;3.83;0.50;;;12.70;96.70;;;;;;4998004;28;20140;-69
2024/02/27 05:51:40;;;;;;;2.30;0.47;;;12.70;96.70;;;;;;5006244;28;20070;-70
2024/02/27 05:54:09;;;;;;;2.05;0.40;;;12.70;96.70;;;;;;4990828;28;20049;-69
2024/02/27 05:56:37;;;;;;;3.22;0.60;;;12.70;96.70;;;;;;5006115;28;20049;-68
2024/02/27 05:59:08;;;;;;;2.15;0.50;;;12.70;96.70;;;;;;4980142;28;20047;-70
2024/02/27 06:01:37;;;;;;;2.85;0.63;;;12.70;96.70;;;;;;4986766;28;20058;-70
2024/02/27 06:04:06;;;;;;;1.25;0.30;;;12.70;96.70;;;;;;4988192;28;20057;-69
2024/02/27 06:06:36;;;;;;;2.38;0.40;;;12.70;96.70;;;;;;4982358;28;20054;-70
2024/02/27 06:09:07;;;;;;;2.00;0.55;;;12.70;96.70;;;;;;5005685;28;20061;-70
2024/02/27 06:11:37;;;;;;;2.08;0.40;;;12.70;96.70;;;;;;4974229;28;20058;-70
2024/02/27 06:14:08;;;;;;;2.63;0.30;;;12.70;96.70;;;;;;5003803;28;20077;-70
2024/02/27 06:16:40;;;;;;;2.58;0.40;;;12.70;96.70;;;;;;5000640;28;20602;-70
2024/02/27 06:19:09;;;;;;;2.33;0.45;;;12.70;96.70;;;;;;4995941;28;20061;-70
2024/02/27 06:24:27;;;;;;;0.82;0.35;;;12.70;96.70;;;;;;5000291;28;20116;-70
2024/02/27 06:26:58;;;;;;;1.45;0.43;;;12.70;96.70;;;;;;5011747;28;20082;-70
2024/02/27 06:29:29;;;;;;;2.08;0.40;;;12.70;96.70;;;;;;4997167;28;20635;-69
2024/02/27 06:32:00;;;;;;;1.92;0.30;;;12.70;96.70;;;;;;4988209;28;20084;-70
2024/02/27 06:34:33;;;;;;;2.05;0.60;;;12.70;96.70;;;;;;4980551;28;20049;-70
2024/02/27 06:37:05;;;;;;;1.42;0.45;;;12.70;96.70;;;;;;5005530;28;20049;-70
2024/02/27 06:39:34;;;;;;;1.77;0.55;;;12.70;96.70;;;;;;5000901;28;20136;-70
2024/02/27 06:42:08;;;;;;;1.60;0.60;;;12.70;96.70;;;;;;4982578;28;20058;-69
2024/02/27 06:44:42;;;;;;;0.90;0.40;;;12.80;96.70;;;;;;4988885;28;20058;-70
2024/02/27 06:47:13;;;;;;;2.63;0.40;;;12.70;96.70;;;;;;4986710;28;20058;-70
2024/02/27 06:49:42;;;;;;;1.23;0.30;;;12.80;96.70;;;;;;5001700;28;20053;-69
2024/02/27 06:52:14;;;;;;;2.40;0.50;;;12.80;96.70;;;;;;5006041;28;20050;-69
2024/02/27 06:54:43;;;;;;;1.42;0.40;;;12.80;96.70;;;;;;5003085;28;20149;-70
2024/02/27 06:57:12;;;;;;;4.95;0.45;;;12.80;96.70;;;;;;4997793;28;20061;-70
2024/02/27 06:59:44;;;;;;;2.53;0.70;;;12.80;96.70;;;;;;4985985;28;20140;-69
2024/02/27 07:02:13;;;;;;;1.85;0.60;;;12.80;96.70;;;;;;4975103;28;20156;-70
2024/02/27 07:04:42;;;;;;;4.78;1.58;;;12.80;96.70;;;;;;4994206;28;20042;-69
2024/02/27 07:07:13;;;;;;;10.93;5.75;;;12.80;96.70;;;;;;4997240;28;20410;-70
2024/02/27 07:09:43;;;;;;;11.13;6.40;;;12.80;96.70;;;;;;5002709;28;20539;-70
2024/02/27 07:12:13;;;;;;;9.13;6.82;;;12.80;96.70;;;;;;4987133;28;20081;-69
2024/02/27 07:14:47;;;;;;;9.68;7.20;;;12.80;96.70;;;;;;4998475;28;20953;-70
2024/02/27 07:17:18;;;;;;;6.10;4.22;;;12.80;96.70;;;;;;4994336;28;20495;-69
2024/02/27 07:19:48;;;;;;;3.53;2.05;;;12.80;96.70;;;;;;4995671;28;20160;-70
2024/02/27 07:22:16;;;;;;;4.18;1.17;;;12.80;96.70;;;;;;4993748;28;20058;-70
2024/02/27 07:24:45;;;;;;;2.10;0.80;;;12.80;96.70;;;;;;4995832;28;20080;-69
2024/02/27 07:27:15;;;;;;;1.85;0.95;;;12.80;96.70;;;;;;5004571;28;20136;-70
2024/02/27 07:29:51;;;;;;;2.70;0.95;;;12.80;96.70;;;;;;4995801;28;20077;-69
2024/02/27 07:32:21;;;;;;;3.05;0.80;;;12.80;96.70;;;;;;5004658;28;20074;-69
2024/02/27 07:34:50;;;;;;;1.95;0.95;;;12.80;96.70;;;;;;5003457;28;20418;-69
2024/02/27 07:37:20;;;;;;;1.70;0.65;;;12.80;96.70;;;;;;4981224;28;20049;-70
2024/02/27 07:39:49;;;;;;;1.70;0.52;;;12.80;96.70;;;;;;4988609;28;20715;-69
2024/02/27 07:42:21;;;;;;;2.13;0.70;;;12.80;96.70;;;;;;4987667;28;20043;-69
2024/02/27 07:44:53;;;;;;;2.92;0.95;;;12.80;96.70;;;;;;5001216;28;20131;-69
2024/02/27 07:47:24;;;;;;;2.20;0.90;;;12.90;96.70;;;;;;4998798;28;20058;-70
2024/02/27 07:49:54;;;;;;;3.78;0.95;;;12.90;96.70;;;;;;4996681;28;20054;-71
2024/02/27 07:52:23;;;;;;;3.13;1.02;;;12.90;96.70;;;;;;4997962;28;20050;-71
2024/02/27 07:54:53;;;;;;;2.70;0.77;;;12.90;96.70;;;;;;4999199;28;20074;-71
2024/02/27 07:57:24;;;;;;;2.30;0.93;;;12.90;96.70;;;;;;4995623;28;20073;-71
2024/02/27 07:59:55;;;;;;;2.90;0.82;;;13.00;96.70;;;;;;4998051;28;20057;-71
2024/02/27 08:02:26;;;;;;;2.92;0.77;;;13.00;96.70;;;;;;5004844;28;20045;-71
2024/02/27 08:04:57;;;;;;;2.10;1.35;;;13.00;96.70;;;;;;4995364;28;20395;-71
2024/02/27 08:07:26;;;;;;;3.33;1.20;;;13.00;96.70;;;;;;4994451;28;20742;-71
2024/02/27 08:09:56;;;;;;;5.50;1.33;;;13.00;96.70;;;;;;4981411;28;20415;-71
2024/02/27 08:12:26;;;;;;;2.70;1.45;;;13.10;96.70;;;;;;4995456;28;20050;-71
2024/02/27 08:14:57;;;;;;;5.80;1.55;;;13.10;96.70;;;;;;4992454;28;20427;-71
2024/02/27 08:17:36;;;;;;;4.25;1.77;;;13.10;96.70;;;;;;5003311;28;20058;-70
2024/02/27 08:20:06;;;;;;;3.67;1.70;;;13.10;96.70;;;;;;4997228;28;20058;-71
2024/02/27 08:22:36;;;;;;;4.32;1.98;;;13.00;96.70;;;;;;4996008;28;20157;-70
2024/02/27 08:25:05;;;;;;;4.30;2.38;;;13.00;96.70;;;;;;4987221;28;20100;-71
2024/02/27 08:27:35;;;;;;;3.38;1.95;;;13.00;96.70;;;;;;4978186;28;20063;-71
2024/02/27 08:30:11;;;;;;;3.78;2.10;;;13.00;96.70;;;;;;4998117;28;20108;-71
2024/02/27 08:32:41;;;;;;;4.63;2.33;;;13.00;96.70;;;;;;4999152;28;20042;-70
2024/02/27 08:35:10;;;;;;;5.07;2.25;;;13.00;96.70;;;;;;4989925;28;20046;-71
2024/02/27 08:37:39;;;;;;;3.97;1.63;;;13.10;96.70;;;;;;5007876;28;20103;-71
2024/02/27 08:40:09;;;;;;;3.80;1.55;;;13.10;96.70;;;;;;4997685;28;20424;-71
2024/02/27 08:42:40;;;;;;;4.60;1.80;;;13.10;96.70;;;;;;4996509;28;20136;-71
2024/02/27 08:45:12;;;;;;;2.08;1.40;;;13.20;96.70;;;;;;4998840;28;20089;-71
2024/02/27 08:47:42;;;;;;;4.25;1.75;;;13.20;96.70;;;;;;5003921;28;20191;-72
2024/02/27 08:50:12;;;;;;;4.78;1.90;;;13.20;96.70;;;;;;5003962;28;20100;-71
2024/02/27 08:52:41;;;;;;;5.05;1.52;;;13.20;96.70;;;;;;4992564;28;20049;-71
2024/02/27 08:55:10;;;;;;;4.32;1.33;;;13.20;96.70;;;;;;5004720;28;20049;-71
2024/02/27 08:57:38;;;;;;;4.35;1.30;;;13.20;96.70;;;;;;4999668;28;20065;-71
2024/02/27 09:00:08;;;;;;;3.47;0.80;;;13.20;96.70;;;;;;5003492;28;20046;-70
2024/02/27 09:02:39;;;;;;;4.57;0.80;;;13.20;96.70;;;;;;4977951;28;20046;-72
2024/02/27 09:05:09;;;;;;;3.63;0.68;;;13.30;96.70;;;;;;4991881;28;20085;-71
2024/02/27 09:07:40;;;;;;;1.83;0.63;;;13.30;96.70;;;;;;5001044;28;20084;-71
2024/02/27 09:10:10;;;;;;;2.03;0.50;;;13.30;96.70;;;;;;4999411;28;20136;-71
2024/02/27 09:12:41;;;;;;;1.25;0.55;;;13.30;96.70;;;;;;4977095;28;20105;-71
2024/02/27 09:15:12;;;;;;;2.60;0.35;;;13.30;96.70;;;;;;4991122;28;20065;-71
2024/02/27 09:17:43;;;;;;;2.45;0.40;;;13.40;96.70;;;;;;5003757;28;20054;-71
2024/02/27 09:20:12;;;;;;;1.02;0.40;;;13.40;96.70;;;;;;4997180;28;20074;-71
2024/02/27 09:22:41;;;;;;;2.10;0.32;;;13.50;96.70;;;;;;4990407;28;20042;-71
2024/02/27 09:25:13;;;;;;;0.90;0.40;;;13.50;96.70;;;;;;4993861;28;20046;-71
2024/02/27 09:27:42;;;;;;;1.88;0.50;;;13.60;96.70;;;;;;4977797;28;20565;-71
2024/02/27 09:30:11;;;;;;;1.70;0.47;;;13.60;96.70;;;;;;4999685;28;20070;-71
2024/02/27 09:32:42;;;;;;;3.17;1.58;;;13.60;96.70;;;;;;5000730;28;20141;-70
2024/02/27 09:35:12;;;;;;;2.45;0.60;;;13.70;96.70;;;;;;5004307;28;20541;-71
2024/02/27 09:37:41;;;;;;;1.30;0.60;;;13.70;96.70;;;;;;5000596;28;20083;-71
2024/02/27 09:40:12;;;;;;;2.72;0.80;;;13.70;96.70;;;;;;4990104;28;20798;-71
2024/02/27 09:42:42;;;;;;;0.65;0.45;;;13.70;96.70;;;;;;4996655;28;20462;-71
2024/02/27 09:45:13;;;;;;;1.63;0.70;;;13.60;96.70;;;;;;4985273;28;20076;-71
2024/02/27 09:47:47;;;;;;;1.73;0.60;;;13.60;96.70;;;;;;5003729;28;20188;-71
2024/02/27 09:50:18;;;;;;;3.25;0.82;;;13.60;96.70;;;;;;5006144;28;20049;-71
2024/02/27 09:52:52;;;;;;;2.75;0.65;;;13.60;96.70;;;;;;4996019;28;20050;-71
2024/02/27 09:55:23;;;;;;;2.65;1.15;;;13.60;96.70;;;;;;5000350;28;20133;-71
2024/02/27 09:57:52;;;;;;;1.92;0.65;;;13.60;96.70;;;;;;5006369;28;20077;-71
2024/02/27 10:00:24;;;;;;;3.85;0.80;;;13.60;96.70;;;;;;5003681;28;20046;-72
2024/02/27 10:02:57;;;;;;;2.50;0.63;;;13.60;96.70;;;;;;5005072;28;20049;-71
2024/02/27 10:05:29;;;;;;;3.60;1.00;;;13.60;96.70;;;;;;5005876;28;20135;-72
2024/02/27 10:08:03;;;;;;;6.50;1.27;;;13.60;96.70;;;;;;5001265;28;20081;-72
2024/02/27 10:10:34;;;;;;;3.80;1.00;;;13.70;96.70;;;;;;5005547;28;20145;-72
2024/02/27 10:13:04;;;;;;;4.57;1.35;;;13.80;96.70;;;;;;5005709;28;20467;-71
2024/02/27 10:15:33;;;;;;;4.07;0.77;;;13.80;96.70;;;;;;5003329;28;20052;-71
2024/02/27 10:18:05;;;;;;;2.60;0.90;;;13.90;96.70;;;;;;4995369;28;20064;-71
2024/02/27 10:20:35;;;;;;;2.42;0.60;;;13.90;96.70;;;;;;5002772;28;20754;-71
2024/02/27 10:23:06;;;;;;;3.67;0.90;;;13.90;96.70;;;;;;4976196;28;20047;-71
2024/02/27 10:25:38;;;;;;;6.10;1.50;;;13.90;96.70;;;;;;5000791;28;20188;-71
2024/02/27 10:28:07;;;;;;;3.28;1.15;;;14.00;96.70;;;;;;4995399;28;20058;-71
2024/02/27 10:30:37;;;;;;;3.30;1.45;;;14.20;96.70;;;;;;4984586;28;20350;-71
2024/02/27 10:33:11;;;;;;;4.13;2.05;;;14.20;96.70;;;;;;4982761;28;20080;-71
2024/02/27 10:35:40;;;;;;;6.18;2.13;;;14.30;96.70;;;;;;5004296;28;20057;-71
2024/02/27 10:38:19;;;;;;;4.40;2.22;;;14.30;96.70;;;;;;4998564;28;20069;-71
2024/02/27 10:40:49;;;;;;;7.53;2.40;;;14.30;96.70;;;;;;5004752;28;20085;-71
2024/02/27 10:43:20;;;;;;;3.38;2.00;;;14.30;96.70;;;;;;4989953;28;20053;-71
2024/02/27 10:45:49;;;;;;;4.93;2.05;;;14.30;96.70;;;;;;4983010;28;20057;-71
2024/02/27 10:48:28;;;;;;;2.72;1.20;;;14.30;96.70;;;;;;4999210;28;20495;-71
2024/02/27 10:51:08;;;;;;;5.10;1.67;;;14.30;96.70;;;;;;4991127;28;20228;-71
2024/02/27 10:53:40;;;;;;;7.47;1.38;;;14.40;96.70;;;;;;4985490;28;20038;-71
2024/02/27 10:56:09;;;;;;;4.65;1.75;;;14.40;96.70;;;;;;4990855;28;20061;-71
2024/02/27 10:58:39;;;;;;;4.20;1.50;;;14.50;96.70;;;;;;4976805;28;20096;-71
2024/02/27 11:01:09;;;;;;;5.40;2.00;;;14.50;96.70;;;;;;4994758;28;20911;-70
2024/02/27 11:03:42;;;;;;;3.08;1.98;;;14.50;96.70;;;;;;4990926;28;20052;-71
2024/02/27 11:06:17;;;;;;;5.18;1.90;;;14.50;96.70;;;;;;4989584;28;20077;-71
2024/02/27 11:08:47;;;;;;;2.78;1.42;;;14.50;96.70;;;;;;4992708;28;20050;-71
2024/02/27 11:11:16;;;;;;;4.78;1.33;;;14.50;96.70;;;;;;4988549;28;20045;-71
2024/02/27 11:13:52;;;;;;;2.55;1.30;;;14.50;96.70;;;;;;4990831;28;20050;-71
2024/02/27 11:16:22;;;;;;;3.20;0.98;;;14.50;96.70;;;;;;5007570;28;20520;-71
2024/02/27 11:19:08;;;;;;;5.70;1.20;;;14.50;96.70;;;;;;5003614;28;20100;-71
2024/02/27 11:21:37;;;;;;;3.50;0.93;;;14.50;96.70;;;;;;4997807;28;20214;-71
2024/02/27 11:24:08;;;;;;;3.03;1.13;;;14.40;96.70;;;;;;4980658;28;20045;-71
2024/02/27 11:26:37;;;;;;;1.75;1.25;;;14.40;96.70;;;;;;4983963;28;20580;-71
2024/02/27 11:29:08;;;;;;;3.97;0.80;;;14.40;96.70;;;;;;4989975;28;20172;-71
2024/02/27 11:31:38;;;;;;;4.00;1.73;;;14.30;96.70;;;;;;4982291;28;20503;-71
2024/02/27 11:34:08;;;;;;;4.45;2.00;;;14.20;96.70;;;;;;4987331;28;20100;-71
2024/02/27 11:36:39;;;;;;;5.85;2.65;;;14.20;96.70;;;;;;4980904;28;20065;-71
2024/02/27 11:39:11;;;;;;;3.65;1.98;;;14.10;96.70;;;;;;4991379;28;20119;-71
2024/02/27 11:41:41;;;;;;;7.53;1.65;;;14.00;96.70;;;;;;4998383;28;20054;-71
2024/02/27 11:44:10;;;;;;;4.07;1.40;;;14.00;96.70;;;;;;4973861;28;20045;-71
2024/02/27 11:46:41;;;;;;;2.80;1.17;;;14.00;96.70;;;;;;4989647;28;20061;-71
2024/02/27 11:49:41;;;;;;;3.17;1.15;;;14.00;96.70;;;;;;4990043;28;20108;-71
2024/02/27 11:52:10;;;;;;;5.63;1.20;;;14.00;96.70;;;;;;5003497;28;20136;-71
2024/02/27 11:54:40;;;;;;;3.60;1.25;;;13.90;96.70;;;;;;5008350;28;20103;-71
2024/02/27 11:57:09;;;;;;;3.50;1.52;;;13.90;96.70;;;;;;5017468;28;20554;-71
2024/02/27 11:59:38;;;;;;;5.63;2.83;;;13.90;96.70;;;;;;5011020;28;20095;-71
2024/02/27 12:02:17;;;;;;;5.22;3.03;;;13.90;96.70;;;;;;5000715;28;20087;-71
2024/02/27 12:04:51;;;;;;;7.32;3.00;;;13.90;96.70;;;;;;4995052;28;20061;-71
2024/02/27 12:07:28;;;;;;;5.93;2.30;;;13.90;96.70;;;;;;5002189;28;20096;-72
2024/02/27 12:10:10;;;;;;;5.40;2.28;;;13.90;96.70;;;;;;4982728;28;20169;-72
2024/02/27 12:12:39;;;;;;;2.65;1.80;;;13.90;96.70;;;;;;4998747;28;20053;-72
2024/02/27 12:15:09;;;;;;;4.97;2.53;;;13.90;96.70;;;;;;4990537;28;20128;-72
2024/02/27 12:17:39;;;;;;;7.40;2.55;;;13.90;96.70;;;;;;4987835;28;20053;-71
2024/02/27 12:20:11;;;;;;;5.32;2.03;;;13.90;96.70;;;;;;4987452;28;20119;-71
2024/02/27 12:22:45;;;;;;;6.05;3.22;;;13.90;96.70;;;;;;5011345;28;20143;-70
2024/02/27 12:25:16;;;;;;;4.10;2.53;;;13.90;96.70;;;;;;5011668;28;20095;-70
2024/02/27 12:27:45;;;;;;;5.15;2.70;;;13.90;96.70;;;;;;4995018;28;20054;-71
2024/02/27 12:30:15;;;;;;;6.65;2.80;;;13.80;96.70;;;;;;4986782;28;20054;-70
2024/02/27 12:32:44;;;;;;;3.80;2.10;;;13.80;96.70;;;;;;5008896;28;20052;-71
2024/02/27 12:35:20;;;;;;;4.57;2.33;;;13.70;96.70;;;;;;4991792;28;20519;-71
2024/02/27 12:37:50;;;;;;;5.22;2.30;;;13.70;96.70;;;;;;4995967;28;20204;-70
2024/02/27 12:40:22;;;;;;;4.00;2.30;;;13.70;96.70;;;;;;5007783;28;20066;-71
2024/02/27 12:42:54;;;;;;;6.97;2.83;;;13.70;96.70;;;;;;5000076;28;20218;-71
2024/02/27 12:45:26;;;;;;;4.35;2.85;;;13.70;96.70;;;;;;5001535;28;20046;-71
2024/02/27 12:47:57;;;;;;;4.72;3.00;;;13.70;96.70;;;;;;4999173;28;20096;-70
2024/02/27 12:50:32;;;;;;;7.03;3.00;;;13.60;96.70;;;;;;4992882;28;20121;-70
2024/02/27 12:53:01;;;;;;;6.97;3.03;;;13.70;96.70;;;;;;5006068;28;20050;-70
2024/02/27 12:55:42;;;;;;;6.25;3.33;;;13.60;96.70;;;;;;4987861;28;20078;-70
2024/02/27 12:58:21;;;;;;;6.05;3.42;;;13.60;96.70;;;;;;5007745;28;20534;-70
2024/02/27 13:00:49;;;;;;;6.05;3.78;;;13.60;96.70;;;;;;5006827;28;20054;-69
2024/02/27 13:03:18;;;;;;;7.15;3.80;;;13.60;96.70;;;;;;5007419;28;20080;-70
2024/02/27 13:05:51;;;;;;;6.65;4.22;;;13.60;96.70;;;;;;4995277;28;20050;-70
2024/02/27 13:08:21;;;;;;;6.25;3.50;;;13.60;96.70;;;;;;5002741;28;20586;-70